Time;durP1;ratioP1;P1;durP2;ratioP2;P2;SDS_P1;SDS_P2;PMS_P1;PMS_P2;Temp;Humidity;BMP_temperature;BMP_pressure;BME280_temperature;BME280_humidity;BME280_pressure;Samples;Min_cycle;Max_cycle;Signal;HPM_P1;HPM_P2
2022/02/28 00:01:56;;;;;;;22.83;9.70;;;0.90;99.90;;;;;;5095413;28;20032;-73
2022/02/28 00:04:22;;;;;;;25.85;9.07;;;0.90;99.90;;;;;;5095367;28;20499;-73
2022/02/28 00:06:48;;;;;;;22.90;9.40;;;0.90;99.90;;;;;;5095204;28;20032;-73
2022/02/28 00:09:14;;;;;;;31.45;10.48;;;0.90;99.90;;;;;;5095105;28;20035;-74
2022/02/28 00:11:40;;;;;;;15.55;8.70;;;0.90;99.90;;;;;;5095060;28;20089;-73
2022/02/28 00:14:05;;;;;;;16.90;8.55;;;1.00;99.90;;;;;;5095037;28;20020;-73
2022/02/28 00:16:31;;;;;;;35.92;8.98;;;1.00;99.90;;;;;;5094903;28;20023;-73
2022/02/28 00:18:57;;;;;;;24.65;9.13;;;1.00;99.90;;;;;;5095242;28;20370;-73
2022/02/28 00:21:22;;;;;;;23.52;7.82;;;1.00;99.90;;;;;;5095175;28;20030;-73
2022/02/28 00:23:48;;;;;;;26.98;10.13;;;0.90;99.90;;;;;;5094894;28;20020;-73
2022/02/28 00:26:13;;;;;;;23.23;10.05;;;0.90;99.90;;;;;;5094648;28;20096;-74
2022/02/28 00:28:39;;;;;;;22.45;8.88;;;0.90;99.90;;;;;;5094989;28;20057;-74
2022/02/28 00:31:04;;;;;;;23.05;10.07;;;0.90;99.90;;;;;;5094764;28;20115;-73
2022/02/28 00:33:30;;;;;;;20.02;8.60;;;0.90;99.90;;;;;;5094672;28;20039;-74
2022/02/28 00:35:56;;;;;;;31.02;10.25;;;0.90;99.90;;;;;;5094599;28;20028;-74
2022/02/28 00:38:21;;;;;;;20.33;9.93;;;0.90;99.90;;;;;;5095160;28;20166;-74
2022/02/28 00:40:47;;;;;;;23.52;9.60;;;0.90;99.90;;;;;;5094516;28;20024;-73
2022/02/28 00:43:12;;;;;;;24.55;10.45;;;0.90;99.90;;;;;;5094526;28;20134;-73
2022/02/28 00:45:38;;;;;;;20.77;9.90;;;0.80;99.90;;;;;;5094626;28;20024;-73
2022/02/28 00:48:04;;;;;;;32.45;10.57;;;0.80;99.90;;;;;;5094538;28;20024;-73
2022/02/28 00:50:30;;;;;;;29.00;9.70;;;0.90;99.90;;;;;;5094337;28;20465;-74
2022/02/28 00:52:56;;;;;;;21.02;9.32;;;1.00;99.90;;;;;;5094351;28;20030;-74
2022/02/28 00:55:21;;;;;;;25.83;8.60;;;0.90;99.90;;;;;;5094370;28;20020;-73
2022/02/28 00:57:47;;;;;;;21.23;10.02;;;0.90;99.90;;;;;;5094239;28;20136;-74
2022/02/28 01:00:15;;;;;;;32.38;9.65;;;0.90;99.90;;;;;;5094191;28;20016;-74
2022/02/28 01:02:41;;;;;;;27.33;10.70;;;0.80;99.90;;;;;;5094058;28;20399;-73
2022/02/28 01:05:07;;;;;;;20.92;9.57;;;0.90;99.90;;;;;;5093279;28;20068;-73
2022/02/28 01:07:32;;;;;;;32.25;11.18;;;0.90;99.90;;;;;;5094037;28;20141;-74
2022/02/28 01:09:58;;;;;;;25.75;11.13;;;0.80;99.90;;;;;;5094075;28;20107;-74
2022/02/28 01:12:23;;;;;;;24.90;11.38;;;0.80;99.90;;;;;;5094184;28;20020;-73
2022/02/28 01:14:49;;;;;;;29.02;10.63;;;0.80;99.90;;;;;;5094019;28;20468;-73
2022/02/28 01:17:16;;;;;;;28.38;10.93;;;0.80;99.90;;;;;;5093881;28;20482;-73
2022/02/28 01:19:42;;;;;;;22.60;10.15;;;0.70;99.90;;;;;;5093944;28;20024;-74
2022/02/28 01:22:10;;;;;;;30.25;10.55;;;0.70;99.90;;;;;;5093847;28;20391;-73
2022/02/28 01:24:39;;;;;;;34.40;13.23;;;0.70;99.90;;;;;;5094054;28;20097;-73
2022/02/28 01:27:06;;;;;;;29.17;11.77;;;0.60;99.90;;;;;;5093615;28;20066;-73
2022/02/28 01:29:32;;;;;;;28.58;12.25;;;0.60;99.90;;;;;;5093626;28;20111;-73
2022/02/28 01:31:57;;;;;;;32.65;13.80;;;0.70;99.90;;;;;;5093788;28;20476;-73
2022/02/28 01:34:23;;;;;;;28.80;11.45;;;0.60;99.90;;;;;;5093628;28;20020;-74
2022/02/28 01:36:48;;;;;;;36.35;11.90;;;0.60;99.90;;;;;;5093627;28;20071;-73
2022/02/28 01:39:14;;;;;;;32.05;13.07;;;0.50;99.90;;;;;;5093626;28;20028;-74
2022/02/28 01:41:40;;;;;;;33.33;13.18;;;0.60;99.90;;;;;;5094138;28;20032;-73
2022/02/28 01:44:07;;;;;;;33.97;14.40;;;0.60;99.90;;;;;;5093549;28;20392;-73
2022/02/28 01:46:34;;;;;;;32.30;13.52;;;0.60;99.90;;;;;;5093722;28;20055;-74
2022/02/28 01:49:00;;;;;;;31.30;13.68;;;0.60;99.90;;;;;;5093404;28;20024;-73
2022/02/28 01:51:27;;;;;;;34.58;14.00;;;0.60;99.90;;;;;;5093367;28;20059;-73
2022/02/28 01:53:53;;;;;;;39.97;14.15;;;0.60;99.90;;;;;;5093717;28;20464;-73
2022/02/28 01:56:20;;;;;;;37.25;15.13;;;0.60;99.90;;;;;;5093384;28;20024;-73
2022/02/28 01:58:46;;;;;;;46.17;14.90;;;0.60;99.90;;;;;;5093675;28;20040;-73
2022/02/28 02:01:11;;;;;;;34.60;14.95;;;0.60;99.90;;;;;;5093602;28;20032;-73
2022/02/28 02:03:37;;;;;;;38.47;17.45;;;0.60;99.90;;;;;;5092081;28;20032;-74
2022/02/28 02:06:06;;;;;;;36.65;15.40;;;0.50;99.90;;;;;;5093663;28;20111;-73
2022/02/28 02:08:33;;;;;;;39.70;16.52;;;0.50;99.90;;;;;;5093519;28;20024;-73
2022/02/28 02:11:00;;;;;;;31.85;14.90;;;0.50;99.90;;;;;;5093335;28;20140;-73
2022/02/28 02:13:26;;;;;;;35.90;15.80;;;0.50;99.90;;;;;;5093584;28;20405;-73
2022/02/28 02:15:51;;;;;;;35.60;16.60;;;0.50;99.90;;;;;;5093162;28;20020;-74
2022/02/28 02:18:17;;;;;;;42.95;18.00;;;0.50;99.90;;;;;;5096730;28;20385;-73
2022/02/28 02:20:42;;;;;;;44.78;17.20;;;0.50;99.90;;;;;;5097593;28;20037;-73
2022/02/28 02:23:12;;;;;;;44.13;18.52;;;0.50;99.90;;;;;;5097252;28;20503;-73
2022/02/28 02:25:39;;;;;;;38.33;17.90;;;0.50;99.90;;;;;;5097043;28;20070;-73
2022/02/28 02:28:07;;;;;;;46.97;20.42;;;0.50;99.90;;;;;;5097509;28;20099;-73
2022/02/28 02:30:32;;;;;;;47.20;18.73;;;0.50;99.90;;;;;;5097142;28;20020;-73
2022/02/28 02:32:58;;;;;;;37.63;18.55;;;0.50;99.90;;;;;;5097048;28;20043;-73
2022/02/28 02:35:24;;;;;;;44.25;19.02;;;0.50;99.90;;;;;;5096949;28;20023;-73
2022/02/28 02:37:50;;;;;;;43.88;18.35;;;0.50;99.90;;;;;;5096967;28;20023;-73
2022/02/28 02:40:15;;;;;;;42.83;19.65;;;0.50;99.90;;;;;;5096868;28;20012;-73
2022/02/28 02:42:41;;;;;;;52.50;19.17;;;0.50;99.90;;;;;;5096858;28;20470;-73
2022/02/28 02:45:07;;;;;;;44.40;19.23;;;0.50;99.90;;;;;;5096962;28;20028;-73
2022/02/28 02:47:33;;;;;;;46.65;19.65;;;0.50;99.90;;;;;;5096687;28;20392;-73
2022/02/28 02:49:59;;;;;;;52.45;19.98;;;0.50;99.90;;;;;;5096616;28;20032;-73
2022/02/28 02:52:25;;;;;;;45.55;20.75;;;0.40;99.90;;;;;;5096684;28;20024;-73
2022/02/28 02:54:50;;;;;;;46.40;19.55;;;0.40;99.90;;;;;;5096502;28;20028;-73
2022/02/28 02:57:20;;;;;;;48.15;19.85;;;0.40;99.90;;;;;;5096573;28;20500;-73
2022/02/28 02:59:46;;;;;;;49.45;20.63;;;0.30;99.90;;;;;;5096544;28;20396;-73
2022/02/28 03:02:11;;;;;;;48.17;21.38;;;0.30;99.90;;;;;;5096766;28;20032;-73
2022/02/28 03:04:37;;;;;;;46.78;19.23;;;0.30;99.90;;;;;;5096947;28;20111;-73
2022/02/28 03:07:02;;;;;;;53.47;21.55;;;0.10;99.90;;;;;;5096911;28;20072;-71
2022/02/28 03:09:29;;;;;;;48.20;21.88;;;0.10;99.90;;;;;;5096262;28;20039;-71
2022/02/28 03:11:54;;;;;;;61.28;21.35;;;0.00;99.90;;;;;;5096280;28;20057;-71
2022/02/28 03:14:20;;;;;;;37.78;18.75;;;-0.10;99.90;;;;;;5096243;28;20020;-71
2022/02/28 03:16:45;;;;;;;55.22;22.13;;;-0.20;99.90;;;;;;5096044;28;20024;-71
2022/02/28 03:19:11;;;;;;;47.15;20.08;;;-0.20;99.90;;;;;;5096240;28;20024;-71
2022/02/28 03:21:36;;;;;;;42.17;19.90;;;-0.30;99.90;;;;;;5096358;28;20115;-71
2022/02/28 03:24:02;;;;;;;55.22;20.60;;;-0.30;99.90;;;;;;5096046;28;20032;-71
2022/02/28 03:26:28;;;;;;;56.50;22.13;;;-0.30;99.90;;;;;;5095791;28;20047;-71
2022/02/28 03:28:53;;;;;;;58.17;23.13;;;-0.30;99.90;;;;;;5094893;28;20488;-71
2022/02/28 03:31:19;;;;;;;55.35;24.13;;;-0.30;99.90;;;;;;5095904;28;20020;-71
2022/02/28 03:33:44;;;;;;;58.60;25.58;;;-0.30;99.90;;;;;;5096409;28;20055;-71
2022/02/28 03:36:10;;;;;;;44.28;21.95;;;-0.30;99.90;;;;;;5095791;28;20044;-71
2022/02/28 03:38:35;;;;;;;58.08;24.50;;;-0.40;99.90;;;;;;5096350;28;20464;-71
2022/02/28 03:41:01;;;;;;;58.42;25.10;;;-0.40;99.90;;;;;;5095726;28;20537;-71
2022/02/28 03:43:26;;;;;;;56.33;24.25;;;-0.30;99.90;;;;;;5095673;28;20103;-71
2022/02/28 03:45:52;;;;;;;58.72;24.30;;;-0.20;99.90;;;;;;5095555;28;20032;-71
2022/02/28 03:48:17;;;;;;;67.80;26.38;;;-0.20;99.90;;;;;;5096029;28;20035;-71
2022/02/28 03:50:43;;;;;;;51.58;24.02;;;-0.30;99.90;;;;;;5095534;28;20021;-71
2022/02/28 03:53:09;;;;;;;55.40;23.30;;;-0.30;99.90;;;;;;5094204;28;20107;-71
2022/02/28 03:55:34;;;;;;;54.17;25.45;;;-0.40;99.90;;;;;;5095420;28;20089;-71
2022/02/28 03:58:00;;;;;;;58.20;25.05;;;-0.40;99.90;;;;;;5095399;28;20024;-71
2022/02/28 04:00:25;;;;;;;63.35;27.92;;;-0.30;99.90;;;;;;5095336;28;20022;-71
2022/02/28 04:02:51;;;;;;;62.60;25.58;;;-0.30;99.90;;;;;;5095563;28;20103;-71
2022/02/28 04:05:17;;;;;;;56.58;25.00;;;-0.30;99.90;;;;;;5095197;28;20032;-71
2022/02/28 04:07:43;;;;;;;67.57;27.57;;;-0.40;99.90;;;;;;5095149;28;20020;-71
2022/02/28 04:10:09;;;;;;;73.40;27.75;;;-0.50;99.90;;;;;;5095437;28;20036;-71
2022/02/28 04:12:35;;;;;;;53.65;24.05;;;-0.40;99.90;;;;;;5095104;28;20082;-71
2022/02/28 04:15:02;;;;;;;54.33;25.08;;;-0.40;99.90;;;;;;5095218;28;20540;-71
2022/02/28 04:17:27;;;;;;;56.97;27.20;;;-0.30;99.90;;;;;;5095460;28;20076;-71
2022/02/28 04:19:53;;;;;;;61.13;25.58;;;-0.40;99.90;;;;;;5094979;28;20024;-70
2022/02/28 04:22:19;;;;;;;59.97;26.10;;;-0.40;99.90;;;;;;5094944;28;20081;-71
2022/02/28 04:24:45;;;;;;;66.13;27.52;;;-0.30;99.90;;;;;;5093541;28;20024;-71
2022/02/28 04:27:11;;;;;;;61.28;27.73;;;-0.40;99.90;;;;;;5094679;28;20051;-71
2022/02/28 04:29:36;;;;;;;57.05;25.17;;;-0.30;99.90;;;;;;5094907;28;20032;-71
2022/02/28 04:32:03;;;;;;;63.83;26.45;;;-0.40;99.90;;;;;;5094862;28;20023;-71
2022/02/28 04:34:29;;;;;;;68.05;28.88;;;-0.40;99.90;;;;;;5094684;28;20024;-71
2022/02/28 04:36:54;;;;;;;55.72;26.75;;;-0.40;99.90;;;;;;5094556;28;20022;-71
2022/02/28 04:39:20;;;;;;;70.18;27.38;;;-0.30;99.90;;;;;;5095332;28;20077;-71
2022/02/28 04:41:46;;;;;;;62.47;28.23;;;-0.30;99.90;;;;;;5094576;28;20537;-71
2022/02/28 04:44:11;;;;;;;60.60;27.80;;;-0.20;99.90;;;;;;5095058;28;20028;-71
2022/02/28 04:46:37;;;;;;;62.63;26.88;;;-0.20;99.90;;;;;;5094433;28;20035;-71
2022/02/28 04:49:02;;;;;;;71.25;28.25;;;-0.30;99.90;;;;;;5095065;28;20028;-71
2022/02/28 04:51:28;;;;;;;69.28;28.70;;;-0.20;99.90;;;;;;5095215;28;20484;-71
2022/02/28 04:53:54;;;;;;;56.92;26.48;;;-0.30;99.90;;;;;;5094377;28;20035;-71
2022/02/28 04:56:20;;;;;;;68.05;28.83;;;-0.30;99.90;;;;;;5094199;28;20089;-71
2022/02/28 04:58:45;;;;;;;62.90;26.38;;;-0.30;99.90;;;;;;5094221;28;20084;-71
2022/02/28 05:01:12;;;;;;;70.47;27.77;;;-0.40;99.90;;;;;;5094172;28;20121;-71
2022/02/28 05:03:38;;;;;;;74.70;29.02;;;-0.40;99.90;;;;;;5094161;28;20016;-71
2022/02/28 05:06:03;;;;;;;65.03;28.15;;;-0.30;99.90;;;;;;5094043;28;20491;-71
2022/02/28 05:08:29;;;;;;;68.13;29.13;;;-0.30;99.90;;;;;;5093996;28;20437;-71
2022/02/28 05:10:54;;;;;;;67.07;27.92;;;-0.30;99.90;;;;;;5094015;28;20095;-71
2022/02/28 05:13:20;;;;;;;60.50;27.30;;;-0.30;99.90;;;;;;5093986;28;20023;-71
2022/02/28 05:15:46;;;;;;;65.55;27.40;;;-0.30;99.90;;;;;;5093890;28;20399;-71
2022/02/28 05:18:11;;;;;;;54.25;25.55;;;-0.30;99.90;;;;;;5093885;28;20391;-71
2022/02/28 05:20:37;;;;;;;58.63;26.80;;;-0.40;99.90;;;;;;5093914;28;20472;-71
2022/02/28 05:23:02;;;;;;;57.13;27.65;;;-0.30;99.90;;;;;;5094101;28;20035;-71
2022/02/28 05:25:28;;;;;;;60.53;26.80;;;-0.40;99.90;;;;;;5093842;28;20178;-71
2022/02/28 05:27:53;;;;;;;65.75;27.75;;;-0.40;99.90;;;;;;5093998;28;20059;-71
2022/02/28 05:30:19;;;;;;;52.72;24.15;;;-0.40;99.90;;;;;;5093761;28;20019;-71
2022/02/28 05:32:45;;;;;;;64.88;27.45;;;-0.40;99.90;;;;;;5093724;28;20475;-71
2022/02/28 05:35:12;;;;;;;73.22;25.60;;;-0.50;99.90;;;;;;5093614;28;20032;-71
2022/02/28 05:37:38;;;;;;;69.22;26.13;;;-0.50;99.90;;;;;;5093805;28;20020;-71
2022/02/28 05:40:05;;;;;;;54.35;26.63;;;-0.50;99.90;;;;;;5094066;28;20031;-71
2022/02/28 05:42:31;;;;;;;61.85;27.35;;;-0.60;99.90;;;;;;5093575;28;20026;-71
2022/02/28 05:44:57;;;;;;;59.58;27.20;;;-0.60;99.90;;;;;;5093486;28;20396;-71
2022/02/28 05:47:22;;;;;;;68.72;28.13;;;-0.70;99.90;;;;;;5093788;28;20021;-70
2022/02/28 05:49:48;;;;;;;60.95;28.10;;;-0.70;99.90;;;;;;5093412;28;20426;-71
2022/02/28 05:52:13;;;;;;;62.90;25.30;;;-0.70;99.90;;;;;;5093195;28;20020;-71
2022/02/28 05:54:39;;;;;;;70.15;26.55;;;-0.70;99.90;;;;;;5093352;28;20058;-71
2022/02/28 05:57:05;;;;;;;58.67;27.63;;;-0.70;99.90;;;;;;5093452;28;20062;-71
2022/02/28 05:59:31;;;;;;;58.65;27.52;;;-0.70;99.90;;;;;;5093380;28;20028;-72
2022/02/28 06:01:57;;;;;;;57.25;27.50;;;-0.60;99.90;;;;;;5093389;28;20027;-72
2022/02/28 06:04:22;;;;;;;56.80;28.45;;;-0.70;99.90;;;;;;5093582;28;20028;-72
2022/02/28 06:06:48;;;;;;;58.67;25.38;;;-0.60;99.90;;;;;;5093321;28;20418;-72
2022/02/28 06:09:14;;;;;;;57.97;28.35;;;-0.70;99.90;;;;;;5093263;28;20020;-72
2022/02/28 06:11:39;;;;;;;67.30;27.42;;;-0.70;99.90;;;;;;5093268;28;20396;-72
2022/02/28 06:14:05;;;;;;;51.60;26.13;;;-0.80;99.90;;;;;;5093275;28;20031;-72
2022/02/28 06:16:31;;;;;;;59.60;27.98;;;-0.80;99.90;;;;;;5093474;28;20016;-72
2022/02/28 06:18:56;;;;;;;59.25;27.02;;;-0.80;99.90;;;;;;5093505;28;20074;-72
2022/02/28 06:21:22;;;;;;;57.50;28.70;;;-0.90;99.90;;;;;;5093193;28;20027;-72
2022/02/28 06:23:47;;;;;;;71.85;29.02;;;-0.90;99.90;;;;;;5093207;28;20024;-72
2022/02/28 06:26:13;;;;;;;66.60;27.23;;;-0.90;99.90;;;;;;5093012;28;20476;-71
2022/02/28 06:28:39;;;;;;;60.65;28.90;;;-1.00;99.90;;;;;;5093106;28;20032;-72
2022/02/28 06:31:05;;;;;;;55.38;26.92;;;-1.00;99.90;;;;;;5093094;28;20073;-72
2022/02/28 06:33:31;;;;;;;52.38;25.20;;;-1.00;99.90;;;;;;5093429;28;20440;-72
2022/02/28 06:35:57;;;;;;;60.72;25.38;;;-1.10;99.90;;;;;;5093013;28;20427;-72
2022/02/28 06:38:23;;;;;;;67.15;26.90;;;-1.00;99.90;;;;;;5093402;28;20024;-72
2022/02/28 06:40:49;;;;;;;57.35;27.08;;;-0.90;99.90;;;;;;5093342;28;20050;-72
2022/02/28 06:43:16;;;;;;;65.97;26.77;;;-0.90;99.90;;;;;;5093287;28;20032;-71
2022/02/28 06:45:42;;;;;;;70.05;29.50;;;-0.80;99.90;;;;;;5093197;28;20020;-71
2022/02/28 06:48:08;;;;;;;74.80;28.80;;;-0.80;99.90;;;;;;5092915;28;20032;-71
2022/02/28 06:50:34;;;;;;;61.53;27.88;;;-0.70;99.90;;;;;;5092934;28;20100;-71
2022/02/28 06:52:59;;;;;;;63.47;27.45;;;-0.60;99.90;;;;;;5092885;28;20396;-71
2022/02/28 06:55:26;;;;;;;62.58;29.60;;;-0.60;99.90;;;;;;5092996;28;20444;-72
2022/02/28 06:57:52;;;;;;;69.45;30.13;;;-0.50;99.90;;;;;;5092865;28;20099;-71
2022/02/28 07:00:18;;;;;;;59.92;28.45;;;-0.40;99.90;;;;;;5093121;28;20020;-71
2022/02/28 07:02:43;;;;;;;68.35;28.88;;;-0.40;99.90;;;;;;5092839;28;20084;-71
2022/02/28 07:05:09;;;;;;;69.70;30.80;;;-0.30;99.90;;;;;;5095753;28;20077;-71
2022/02/28 07:07:36;;;;;;;62.10;30.58;;;-0.20;99.90;;;;;;5096397;28;20510;-71
2022/02/28 07:10:03;;;;;;;65.65;30.30;;;-0.10;99.90;;;;;;5096251;28;20024;-71
2022/02/28 07:12:29;;;;;;;64.63;29.10;;;-0.10;99.90;;;;;;5096629;28;20035;-71
2022/02/28 07:14:55;;;;;;;61.38;29.33;;;0.00;99.90;;;;;;5096434;28;20418;-71
2022/02/28 07:17:20;;;;;;;67.43;30.48;;;0.10;99.90;;;;;;5096345;28;20066;-72
2022/02/28 07:19:46;;;;;;;65.55;28.73;;;0.20;99.90;;;;;;5096192;28;20103;-71
2022/02/28 07:22:11;;;;;;;59.75;28.25;;;0.20;99.90;;;;;;5096110;28;20031;-72
2022/02/28 07:24:37;;;;;;;61.40;28.77;;;0.30;99.90;;;;;;5096488;28;20020;-71
2022/02/28 07:27:03;;;;;;;54.53;26.50;;;0.30;99.90;;;;;;5094623;28;20400;-72
2022/02/28 07:29:28;;;;;;;56.63;28.65;;;0.40;99.90;;;;;;5095837;28;20476;-72
2022/02/28 07:31:55;;;;;;;61.00;28.35;;;0.50;99.90;;;;;;5095912;28;20020;-72
2022/02/28 07:34:21;;;;;;;56.90;26.70;;;0.50;99.90;;;;;;5096187;28;20026;-72
2022/02/28 07:36:46;;;;;;;53.65;25.13;;;0.60;99.90;;;;;;5096059;28;20111;-71
2022/02/28 07:39:12;;;;;;;57.38;26.45;;;0.70;99.90;;;;;;5095778;28;20065;-71
2022/02/28 07:41:38;;;;;;;54.17;24.13;;;0.80;99.90;;;;;;5095792;28;20031;-72
2022/02/28 07:44:05;;;;;;;56.90;25.58;;;0.90;99.90;;;;;;5095668;28;20020;-71
2022/02/28 07:46:30;;;;;;;62.17;24.52;;;1.00;99.90;;;;;;5096499;28;20483;-71
2022/02/28 07:48:56;;;;;;;47.17;23.35;;;1.10;99.90;;;;;;5095559;28;20020;-71
2022/02/28 07:51:22;;;;;;;43.88;22.98;;;1.30;99.90;;;;;;5094288;28;20107;-72
2022/02/28 07:53:47;;;;;;;50.10;25.48;;;1.40;99.90;;;;;;5095528;28;20433;-71
2022/02/28 07:56:13;;;;;;;46.92;24.48;;;1.50;99.90;;;;;;5095407;28;20026;-71
2022/02/28 07:58:38;;;;;;;47.72;22.70;;;1.60;99.90;;;;;;5095979;28;20020;-72
2022/02/28 08:01:04;;;;;;;48.75;23.63;;;1.70;99.90;;;;;;5095656;28;20110;-72
2022/02/28 08:03:29;;;;;;;48.70;23.27;;;1.80;99.90;;;;;;5095602;28;20020;-72
2022/02/28 08:05:55;;;;;;;36.88;21.35;;;1.90;99.90;;;;;;5095249;28;20055;-72
2022/02/28 08:08:21;;;;;;;45.72;21.92;;;2.00;99.90;;;;;;5095142;28;20028;-72
2022/02/28 08:10:46;;;;;;;36.92;20.23;;;2.10;99.90;;;;;;5095234;28;20492;-71
2022/02/28 08:13:12;;;;;;;44.08;21.85;;;2.20;99.90;;;;;;5095155;28;20388;-72
2022/02/28 08:15:39;;;;;;;37.67;20.63;;;2.30;99.90;;;;;;5094853;28;20529;-72
2022/02/28 08:18:05;;;;;;;40.10;21.25;;;2.40;99.90;;;;;;5095066;28;20024;-72
2022/02/28 08:20:30;;;;;;;40.17;20.08;;;2.50;99.90;;;;;;5093692;28;20388;-71
2022/02/28 08:22:56;;;;;;;36.80;19.42;;;2.60;99.90;;;;;;5095217;28;20027;-70
2022/02/28 08:25:22;;;;;;;45.90;21.15;;;2.70;99.90;;;;;;5094981;28;20453;-72
2022/02/28 08:27:47;;;;;;;41.75;21.13;;;2.80;99.90;;;;;;5095455;28;20027;-71
2022/02/28 08:30:13;;;;;;;32.50;18.58;;;2.90;99.90;;;;;;5095289;28;20134;-71
2022/02/28 08:32:39;;;;;;;36.72;18.02;;;3.00;99.90;;;;;;5094968;28;20093;-71
2022/02/28 08:35:05;;;;;;;44.80;19.17;;;3.10;99.90;;;;;;5094661;28;20101;-71
2022/02/28 08:37:30;;;;;;;41.95;20.45;;;3.20;99.90;;;;;;5094963;28;20565;-71
2022/02/28 08:39:57;;;;;;;41.15;18.42;;;3.30;99.90;;;;;;5094940;28;20028;-70
2022/02/28 08:42:23;;;;;;;42.85;19.75;;;3.40;99.90;;;;;;5094552;28;20016;-71
2022/02/28 08:44:48;;;;;;;38.15;18.90;;;3.50;99.90;;;;;;5094594;28;20270;-71
2022/02/28 08:47:14;;;;;;;42.75;20.10;;;3.60;99.90;;;;;;5094517;28;20043;-70
2022/02/28 08:49:40;;;;;;;43.08;20.88;;;3.70;99.90;;;;;;5094344;28;20387;-71
2022/02/28 08:52:07;;;;;;;34.30;18.42;;;3.80;99.90;;;;;;5094683;28;20077;-70
2022/02/28 08:54:34;;;;;;;38.95;18.35;;;3.90;99.90;;;;;;5094300;28;20032;-71
2022/02/28 08:57:03;;;;;;;33.83;18.08;;;4.00;99.90;;;;;;5094351;28;20045;-71
2022/02/28 08:59:29;;;;;;;42.25;20.45;;;4.20;99.90;;;;;;5094291;28;20048;-71
2022/02/28 09:01:55;;;;;;;32.42;18.67;;;4.30;99.90;;;;;;5094508;28;20039;-71
2022/02/28 09:04:21;;;;;;;36.20;19.10;;;4.40;99.90;;;;;;5094222;28;20024;-71
2022/02/28 09:06:48;;;;;;;41.38;19.50;;;4.50;99.90;;;;;;5094652;28;20416;-71
2022/02/28 09:09:14;;;;;;;34.83;18.92;;;4.60;99.90;;;;;;5092779;28;20028;-70
2022/02/28 09:11:39;;;;;;;35.95;20.77;;;4.60;99.90;;;;;;5094079;28;20035;-70
2022/02/28 09:14:05;;;;;;;40.33;19.48;;;4.70;99.90;;;;;;5094344;28;20484;-70
2022/02/28 09:16:31;;;;;;;36.00;19.67;;;4.90;99.90;;;;;;5093911;28;20012;-70
2022/02/28 09:18:57;;;;;;;35.80;19.70;;;5.00;99.90;;;;;;5093919;28;20024;-70
2022/02/28 09:21:23;;;;;;;37.47;18.65;;;5.00;99.90;;;;;;5093882;28;20023;-70
2022/02/28 09:23:49;;;;;;;35.45;18.27;;;5.10;99.90;;;;;;5093918;28;20020;-70
2022/02/28 09:26:14;;;;;;;33.47;16.90;;;5.30;99.90;;;;;;5092877;28;20028;-70
2022/02/28 09:28:40;;;;;;;30.00;16.98;;;5.30;99.90;;;;;;5093805;28;20024;-70
2022/02/28 09:31:07;;;;;;;34.40;18.35;;;5.40;99.90;;;;;;5093763;28;20023;-70
2022/02/28 09:33:33;;;;;;;35.83;17.73;;;5.40;99.90;;;;;;5093987;28;20415;-70
2022/02/28 09:36:00;;;;;;;34.22;19.00;;;5.50;99.90;;;;;;5093789;28;20024;-70
2022/02/28 09:38:25;;;;;;;32.40;18.10;;;5.50;99.90;;;;;;5094318;28;20050;-71
2022/02/28 09:40:53;;;;;;;31.73;17.45;;;5.60;99.90;;;;;;5094026;28;20089;-71
2022/02/28 09:43:18;;;;;;;37.10;18.33;;;5.70;99.90;;;;;;5092379;28;20438;-71
2022/02/28 09:45:45;;;;;;;28.15;16.83;;;5.80;99.90;;;;;;5093645;28;20024;-71
2022/02/28 09:48:11;;;;;;;34.10;18.55;;;5.80;99.90;;;;;;5092555;28;20136;-71
2022/02/28 09:50:36;;;;;;;33.20;17.75;;;5.90;99.90;;;;;;5093884;28;20546;-71
2022/02/28 09:53:05;;;;;;;31.17;17.17;;;6.00;99.90;;;;;;5093499;28;20017;-71
2022/02/28 09:55:30;;;;;;;29.33;18.25;;;6.10;99.90;;;;;;5093608;28;20020;-70
2022/02/28 09:57:56;;;;;;;33.83;19.30;;;6.10;99.90;;;;;;5093416;28;20012;-71
2022/02/28 10:00:23;;;;;;;30.67;17.30;;;6.20;99.90;;;;;;5093491;28;20017;-70
2022/02/28 10:02:50;;;;;;;35.22;17.00;;;6.30;99.90;;;;;;5093458;28;20054;-70
2022/02/28 10:05:17;;;;;;;29.20;18.02;;;6.40;99.90;;;;;;5093433;28;20433;-70
2022/02/28 10:07:52;;;;;;;31.73;17.42;;;6.50;99.90;;;;;;5093369;28;20032;-70
2022/02/28 10:10:19;;;;;;;36.35;17.35;;;6.60;99.90;;;;;;5093287;28;20063;-70
2022/02/28 10:12:45;;;;;;;35.90;17.27;;;6.60;99.90;;;;;;5093360;28;20095;-70
2022/02/28 10:15:17;;;;;;;29.17;16.15;;;6.50;99.90;;;;;;5093399;28;20041;-71
2022/02/28 10:17:54;;;;;;;33.13;16.35;;;6.50;99.90;;;;;;5093348;28;20024;-70
2022/02/28 10:20:24;;;;;;;30.90;16.25;;;6.70;99.90;;;;;;5093229;28;20071;-71
2022/02/28 10:22:54;;;;;;;29.67;17.25;;;6.80;99.90;;;;;;5093265;28;20027;-71
2022/02/28 10:25:31;;;;;;;30.35;18.02;;;6.80;99.90;;;;;;5093059;28;20029;-71
2022/02/28 10:28:10;;;;;;;34.60;18.63;;;6.90;99.90;;;;;;5093509;28;20035;-71
2022/02/28 10:30:36;;;;;;;37.85;17.27;;;7.00;99.90;;;;;;5093777;28;20013;-70
2022/02/28 10:33:14;;;;;;;33.45;17.10;;;7.10;99.90;;;;;;5093450;28;20069;-71
2022/02/28 10:35:59;;;;;;;29.50;16.95;;;7.10;99.90;;;;;;5093345;28;20498;-71
2022/02/28 10:38:29;;;;;;;30.77;18.30;;;7.20;99.90;;;;;;5095394;28;20072;-71
2022/02/28 10:40:56;;;;;;;33.03;17.30;;;7.30;99.90;;;;;;5097320;28;20020;-71
2022/02/28 10:43:26;;;;;;;30.65;18.58;;;7.50;99.90;;;;;;5097072;28;20503;-71
2022/02/28 10:45:53;;;;;;;28.90;16.02;;;7.70;99.90;;;;;;5096890;28;20027;-71
2022/02/28 10:48:20;;;;;;;28.40;17.23;;;7.60;99.90;;;;;;5096759;28;20023;-71
2022/02/28 10:50:46;;;;;;;32.25;17.20;;;7.70;99.90;;;;;;5096822;28;20024;-71
2022/02/28 10:53:20;;;;;;;26.95;16.15;;;7.60;99.90;;;;;;5096716;28;20069;-70
2022/02/28 10:55:47;;;;;;;31.95;16.70;;;7.70;99.90;;;;;;5096501;28;20024;-71
2022/02/28 10:58:15;;;;;;;28.50;16.98;;;7.90;99.90;;;;;;5096665;28;20024;-71
2022/02/28 11:00:56;;;;;;;33.40;17.65;;;8.10;99.90;;;;;;5095348;28;20016;-71
2022/02/28 11:03:23;;;;;;;28.30;16.35;;;8.10;99.90;;;;;;5097080;28;20398;-71
2022/02/28 11:05:57;;;;;;;27.77;16.98;;;8.10;99.90;;;;;;5096728;28;20042;-71
2022/02/28 11:08:24;;;;;;;28.95;17.08;;;8.10;99.90;;;;;;5096365;28;20024;-71
2022/02/28 11:10:51;;;;;;;30.50;16.83;;;8.20;99.90;;;;;;5096417;28;20028;-71
2022/02/28 11:13:17;;;;;;;30.08;16.95;;;8.30;99.90;;;;;;5096354;28;20028;-71
2022/02/28 11:15:43;;;;;;;29.88;17.10;;;8.40;99.90;;;;;;5096288;28;20069;-71
2022/02/28 11:18:12;;;;;;;34.13;17.10;;;8.40;99.90;;;;;;5096240;28;20480;-71
2022/02/28 11:20:42;;;;;;;35.88;17.88;;;8.40;99.90;;;;;;5096451;28;20027;-71
2022/02/28 11:23:07;;;;;;;29.63;16.65;;;8.40;99.90;;;;;;5096240;28;20097;-71
2022/02/28 11:25:33;;;;;;;28.80;17.17;;;8.50;99.90;;;;;;5096113;28;20419;-71
2022/02/28 11:28:00;;;;;;;27.00;16.67;;;8.70;99.90;;;;;;5096310;28;20127;-71
2022/02/28 11:30:29;;;;;;;28.60;17.58;;;8.70;99.90;;;;;;5096004;28;20061;-71
2022/02/28 11:32:56;;;;;;;26.08;15.82;;;9.00;99.90;;;;;;5096235;28;20027;-71
2022/02/28 11:35:55;;;;;;;25.88;15.45;;;9.00;99.90;;;;;;5094586;28;20116;-71
2022/02/28 11:38:23;;;;;;;29.40;16.27;;;9.00;99.90;;;;;;5095970;28;20020;-71
2022/02/28 11:41:02;;;;;;;25.67;15.90;;;9.10;99.90;;;;;;5095830;28;20016;-71
2022/02/28 11:43:29;;;;;;;29.13;16.15;;;9.20;99.90;;;;;;5095763;28;20565;-71
2022/02/28 11:45:57;;;;;;;29.58;16.48;;;9.20;99.90;;;;;;5096310;28;20448;-71
2022/02/28 11:48:22;;;;;;;28.58;16.13;;;9.30;99.90;;;;;;5095846;28;20430;-71
2022/02/28 11:50:51;;;;;;;25.55;15.50;;;9.30;99.90;;;;;;5093870;28;20016;-71
2022/02/28 11:53:54;;;;;;;26.08;16.02;;;9.40;99.90;;;;;;5095578;28;20472;-71
2022/02/28 11:56:19;;;;;;;25.08;16.05;;;9.40;99.90;;;;;;5073106;28;20491;-71
2022/02/28 11:58:59;;;;;;;25.73;15.75;;;9.50;99.90;;;;;;5091272;28;20044;-71
2022/02/28 12:01:48;;;;;;;25.58;15.75;;;9.40;99.90;;;;;;5095469;28;20021;-71
2022/02/28 12:04:38;;;;;;;29.13;15.90;;;9.30;99.90;;;;;;5095709;28;20024;-71
2022/02/28 12:07:06;;;;;;;35.45;16.33;;;9.50;99.90;;;;;;5095614;28;20028;-71
2022/02/28 12:09:31;;;;;;;27.30;16.50;;;9.80;99.90;;;;;;5095436;28;20047;-72
2022/02/28 12:12:27;;;;;;;24.92;16.08;;;10.00;99.90;;;;;;5095300;28;20512;-72
2022/02/28 12:14:56;;;;;;;31.58;16.05;;;10.40;99.90;;;;;;5095704;28;20031;-71
2022/02/28 12:17:31;;;;;;;28.30;15.57;;;10.40;99.90;;;;;;5095322;28;20023;-71
2022/02/28 12:20:19;;;;;;;27.98;15.55;;;10.40;99.90;;;;;;5095098;28;20036;-71
2022/02/28 12:22:58;;;;;;;23.00;14.82;;;10.60;99.90;;;;;;5095276;28;20024;-71
2022/02/28 12:25:39;;;;;;;32.53;16.30;;;10.50;99.90;;;;;;5094962;28;20020;-72
2022/02/28 12:28:24;;;;;;;27.42;15.25;;;10.60;99.90;;;;;;5095113;28;20024;-72
2022/02/28 12:31:16;;;;;;;26.85;16.67;;;10.80;99.90;;;;;;5095187;28;20020;-71
2022/02/28 12:33:41;;;;;;;24.83;15.32;;;11.00;99.90;;;;;;5094470;28;20416;-71